sensor_id;sensor_type;location;lat;lon;timestamp;temperature;humidity
32728;DHT22;55292;51.844;19.246;2022-12-26T00:02:44;5.80;99.90
32728;DHT22;55292;51.844;19.246;2022-12-26T00:07:47;5.80;99.90
32728;DHT22;55292;51.844;19.246;2022-12-26T00:12:49;5.90;99.90
32728;DHT22;55292;51.844;19.246;2022-12-26T00:17:52;5.90;99.90
32728;DHT22;55292;51.844;19.246;2022-12-26T00:22:55;5.90;99.90
32728;DHT22;55292;51.844;19.246;2022-12-26T00:27:58;6.00;99.90
32728;DHT22;55292;51.844;19.246;2022-12-26T00:33:00;6.00;99.90
32728;DHT22;55292;51.844;19.246;2022-12-26T00:38:03;6.00;99.90
32728;DHT22;55292;51.844;19.246;2022-12-26T00:43:05;6.10;99.90
32728;DHT22;55292;51.844;19.246;2022-12-26T00:48:08;6.00;99.90
32728;DHT22;55292;51.844;19.246;2022-12-26T00:53:10;6.00;99.90
32728;DHT22;55292;51.844;19.246;2022-12-26T00:58:13;6.00;99.90
32728;DHT22;55292;51.844;19.246;2022-12-26T01:03:16;6.10;99.90
32728;DHT22;55292;51.844;19.246;2022-12-26T01:08:20;6.10;99.90
32728;DHT22;55292;51.844;19.246;2022-12-26T01:13:26;6.10;99.90
32728;DHT22;55292;51.844;19.246;2022-12-26T01:18:28;6.10;99.90
32728;DHT22;55292;51.844;19.246;2022-12-26T01:23:31;6.10;99.90
32728;DHT22;55292;51.844;19.246;2022-12-26T01:28:34;6.10;99.90
32728;DHT22;55292;51.844;19.246;2022-12-26T01:33:36;6.00;99.90
32728;DHT22;55292;51.844;19.246;2022-12-26T01:38:40;6.00;99.90
32728;DHT22;55292;51.844;19.246;2022-12-26T01:49:00;5.90;99.90
32728;DHT22;55292;51.844;19.246;2022-12-26T01:54:06;6.00;99.90
32728;DHT22;55292;51.844;19.246;2022-12-26T01:59:32;6.00;99.90
32728;DHT22;55292;51.844;19.246;2022-12-26T02:04:41;6.00;99.90
32728;DHT22;55292;51.844;19.246;2022-12-26T02:10:08;6.00;99.90
32728;DHT22;55292;51.844;19.246;2022-12-26T02:15:15;6.10;99.90
32728;DHT22;55292;51.844;19.246;2022-12-26T02:20:27;6.10;99.90
32728;DHT22;55292;51.844;19.246;2022-12-26T02:31:13;6.10;99.90
32728;DHT22;55292;51.844;19.246;2022-12-26T02:36:45;6.20;99.90
32728;DHT22;55292;51.844;19.246;2022-12-26T02:42:14;6.10;99.90
32728;DHT22;55292;51.844;19.246;2022-12-26T02:47:41;6.10;99.90
32728;DHT22;55292;51.844;19.246;2022-12-26T02:58:42;6.10;99.90
32728;DHT22;55292;51.844;19.246;2022-12-26T03:04:11;6.10;99.90
32728;DHT22;55292;51.844;19.246;2022-12-26T03:09:35;6.20;99.90
32728;DHT22;55292;51.844;19.246;2022-12-26T03:15:00;6.20;99.90
32728;DHT22;55292;51.844;19.246;2022-12-26T03:20:05;6.20;99.90
32728;DHT22;55292;51.844;19.246;2022-12-26T03:31:07;6.20;99.90
32728;DHT22;55292;51.844;19.246;2022-12-26T03:41:52;6.10;99.90
32728;DHT22;55292;51.844;19.246;2022-12-26T03:58:34;6.00;99.90
32728;DHT22;55292;51.844;19.246;2022-12-26T04:03:58;6.00;99.90
32728;DHT22;55292;51.844;19.246;2022-12-26T04:09:29;6.10;99.90
32728;DHT22;55292;51.844;19.246;2022-12-26T04:15:58;6.10;99.90
32728;DHT22;55292;51.844;19.246;2022-12-26T04:26:37;6.20;99.90
32728;DHT22;55292;51.844;19.246;2022-12-26T04:32:34;6.20;99.90
32728;DHT22;55292;51.844;19.246;2022-12-26T04:37:58;6.20;99.90
32728;DHT22;55292;51.844;19.246;2022-12-26T04:43:20;6.20;99.90
32728;DHT22;55292;51.844;19.246;2022-12-26T04:48:52;6.30;99.90
32728;DHT22;55292;51.844;19.246;2022-12-26T04:54:14;6.30;99.90
32728;DHT22;55292;51.844;19.246;2022-12-26T04:59:17;6.20;99.90
32728;DHT22;55292;51.844;19.246;2022-12-26T05:04:20;6.30;99.90
32728;DHT22;55292;51.844;19.246;2022-12-26T05:09:41;6.30;99.90
32728;DHT22;55292;51.844;19.246;2022-12-26T05:14:44;6.40;99.90
32728;DHT22;55292;51.844;19.246;2022-12-26T05:19:47;6.30;99.90
32728;DHT22;55292;51.844;19.246;2022-12-26T05:25:15;6.40;99.90
32728;DHT22;55292;51.844;19.246;2022-12-26T05:30:37;6.40;99.90
32728;DHT22;55292;51.844;19.246;2022-12-26T05:35:40;6.50;99.90
32728;DHT22;55292;51.844;19.246;2022-12-26T05:40:43;6.50;99.90
32728;DHT22;55292;51.844;19.246;2022-12-26T05:45:45;6.60;99.90
32728;DHT22;55292;51.844;19.246;2022-12-26T05:50:48;6.70;99.90
32728;DHT22;55292;51.844;19.246;2022-12-26T05:55:51;6.70;99.90
32728;DHT22;55292;51.844;19.246;2022-12-26T06:01:12;6.90;99.90
32728;DHT22;55292;51.844;19.246;2022-12-26T06:06:16;7.10;99.90
32728;DHT22;55292;51.844;19.246;2022-12-26T06:11:20;7.30;99.90
32728;DHT22;55292;51.844;19.246;2022-12-26T06:16:24;7.40;99.90
32728;DHT22;55292;51.844;19.246;2022-12-26T06:21:26;7.50;99.90
32728;DHT22;55292;51.844;19.246;2022-12-26T06:26:29;7.60;99.90
32728;DHT22;55292;51.844;19.246;2022-12-26T06:31:31;7.70;99.90
32728;DHT22;55292;51.844;19.246;2022-12-26T06:36:34;7.70;99.90
32728;DHT22;55292;51.844;19.246;2022-12-26T06:41:37;7.60;99.90
32728;DHT22;55292;51.844;19.246;2022-12-26T06:46:40;7.70;99.90
32728;DHT22;55292;51.844;19.246;2022-12-26T06:51:42;7.80;99.90
32728;DHT22;55292;51.844;19.246;2022-12-26T06:56:46;7.80;99.90
32728;DHT22;55292;51.844;19.246;2022-12-26T07:01:48;7.80;99.90
32728;DHT22;55292;51.844;19.246;2022-12-26T07:06:51;7.80;99.90
32728;DHT22;55292;51.844;19.246;2022-12-26T07:11:54;7.90;99.90
32728;DHT22;55292;51.844;19.246;2022-12-26T07:16:57;8.00;99.90
32728;DHT22;55292;51.844;19.246;2022-12-26T07:22:00;8.00;99.90
32728;DHT22;55292;51.844;19.246;2022-12-26T07:27:04;8.00;99.90
32728;DHT22;55292;51.844;19.246;2022-12-26T07:32:06;8.10;99.90
32728;DHT22;55292;51.844;19.246;2022-12-26T07:37:09;8.20;99.90
32728;DHT22;55292;51.844;19.246;2022-12-26T07:42:11;8.20;99.90
32728;DHT22;55292;51.844;19.246;2022-12-26T07:47:14;8.20;99.90
32728;DHT22;55292;51.844;19.246;2022-12-26T07:52:17;8.30;99.90
32728;DHT22;55292;51.844;19.246;2022-12-26T07:57:21;8.40;99.90
32728;DHT22;55292;51.844;19.246;2022-12-26T08:02:48;8.40;99.90
32728;DHT22;55292;51.844;19.246;2022-12-26T08:07:51;8.30;99.90
32728;DHT22;55292;51.844;19.246;2022-12-26T08:12:53;8.70;99.90
32728;DHT22;55292;51.844;19.246;2022-12-26T08:17:56;8.70;99.90
32728;DHT22;55292;51.844;19.246;2022-12-26T08:22:59;8.80;99.90
32728;DHT22;55292;51.844;19.246;2022-12-26T08:28:02;8.60;99.90
32728;DHT22;55292;51.844;19.246;2022-12-26T08:33:04;8.80;99.90
32728;DHT22;55292;51.844;19.246;2022-12-26T08:38:07;8.80;99.90
32728;DHT22;55292;51.844;19.246;2022-12-26T08:43:10;8.90;99.90
32728;DHT22;55292;51.844;19.246;2022-12-26T08:48:37;9.00;99.90
32728;DHT22;55292;51.844;19.246;2022-12-26T08:53:40;9.10;99.90
32728;DHT22;55292;51.844;19.246;2022-12-26T08:58:43;9.20;99.90
32728;DHT22;55292;51.844;19.246;2022-12-26T09:03:47;9.20;99.90
32728;DHT22;55292;51.844;19.246;2022-12-26T09:08:53;9.20;99.90
32728;DHT22;55292;51.844;19.246;2022-12-26T09:13:57;9.40;99.90
32728;DHT22;55292;51.844;19.246;2022-12-26T09:19:00;9.40;99.90
32728;DHT22;55292;51.844;19.246;2022-12-26T09:24:06;9.50;99.90
32728;DHT22;55292;51.844;19.246;2022-12-26T09:29:12;9.60;99.90
32728;DHT22;55292;51.844;19.246;2022-12-26T09:34:14;9.70;99.90
32728;DHT22;55292;51.844;19.246;2022-12-26T09:39:17;9.80;99.90
32728;DHT22;55292;51.844;19.246;2022-12-26T10:00:27;10.00;99.90
32728;DHT22;55292;51.844;19.246;2022-12-26T10:05:41;10.20;99.90
32728;DHT22;55292;51.844;19.246;2022-12-26T10:10:58;10.30;99.90
32728;DHT22;55292;51.844;19.246;2022-12-26T10:16:10;10.50;99.90
32728;DHT22;55292;51.844;19.246;2022-12-26T10:21:32;10.50;99.90
32728;DHT22;55292;51.844;19.246;2022-12-26T10:26:43;10.80;99.90
32728;DHT22;55292;51.844;19.246;2022-12-26T10:32:04;10.90;99.90
32728;DHT22;55292;51.844;19.246;2022-12-26T10:37:23;10.70;99.90
32728;DHT22;55292;51.844;19.246;2022-12-26T10:42:44;10.70;99.90
32728;DHT22;55292;51.844;19.246;2022-12-26T10:47:48;10.80;99.90
32728;DHT22;55292;51.844;19.246;2022-12-26T10:52:52;10.70;99.90
32728;DHT22;55292;51.844;19.246;2022-12-26T10:58:05;10.60;99.90
32728;DHT22;55292;51.844;19.246;2022-12-26T11:03:13;10.70;99.90
32728;DHT22;55292;51.844;19.246;2022-12-26T11:08:24;10.80;99.90
32728;DHT22;55292;51.844;19.246;2022-12-26T11:13:27;11.00;99.90
32728;DHT22;55292;51.844;19.246;2022-12-26T11:18:38;11.10;99.90
32728;DHT22;55292;51.844;19.246;2022-12-26T11:23:43;11.30;99.90
32728;DHT22;55292;51.844;19.246;2022-12-26T11:28:45;11.60;99.90
32728;DHT22;55292;51.844;19.246;2022-12-26T11:33:49;11.50;99.90
32728;DHT22;55292;51.844;19.246;2022-12-26T11:38:59;11.30;99.90
32728;DHT22;55292;51.844;19.246;2022-12-26T11:55:00;11.30;99.90
32728;DHT22;55292;51.844;19.246;2022-12-26T12:00:17;11.20;99.90
32728;DHT22;55292;51.844;19.246;2022-12-26T12:21:45;11.20;99.90
32728;DHT22;55292;51.844;19.246;2022-12-26T12:32:43;11.50;99.90
32728;DHT22;55292;51.844;19.246;2022-12-26T12:43:12;11.70;99.90
32728;DHT22;55292;51.844;19.246;2022-12-26T12:48:31;11.70;99.90
32728;DHT22;55292;51.844;19.246;2022-12-26T12:59:01;11.90;99.90
32728;DHT22;55292;51.844;19.246;2022-12-26T13:09:36;11.80;99.90
32728;DHT22;55292;51.844;19.246;2022-12-26T13:14:42;11.80;99.90
32728;DHT22;55292;51.844;19.246;2022-12-26T13:20:01;11.90;99.90
32728;DHT22;55292;51.844;19.246;2022-12-26T13:25:04;11.80;99.90
32728;DHT22;55292;51.844;19.246;2022-12-26T13:30:16;11.60;99.90
32728;DHT22;55292;51.844;19.246;2022-12-26T13:36:02;11.50;99.90
32728;DHT22;55292;51.844;19.246;2022-12-26T13:41:06;11.30;99.90
32728;DHT22;55292;51.844;19.246;2022-12-26T13:51:46;11.10;99.90
32728;DHT22;55292;51.844;19.246;2022-12-26T13:57:10;11.00;99.90
32728;DHT22;55292;51.844;19.246;2022-12-26T14:14:00;10.80;99.90
32728;DHT22;55292;51.844;19.246;2022-12-26T14:24:55;10.80;99.90
32728;DHT22;55292;51.844;19.246;2022-12-26T14:40:57;10.60;99.90
32728;DHT22;55292;51.844;19.246;2022-12-26T14:46:03;10.50;99.90
32728;DHT22;55292;51.844;19.246;2022-12-26T14:56:35;10.40;99.90
32728;DHT22;55292;51.844;19.246;2022-12-26T15:12:41;10.30;99.90
32728;DHT22;55292;51.844;19.246;2022-12-26T15:29:00;10.10;99.90
32728;DHT22;55292;51.844;19.246;2022-12-26T15:34:35;10.00;99.90
32728;DHT22;55292;51.844;19.246;2022-12-26T15:45:28;10.00;99.90
32728;DHT22;55292;51.844;19.246;2022-12-26T16:01:00;10.20;99.90
32728;DHT22;55292;51.844;19.246;2022-12-26T16:11:57;9.90;99.90
32728;DHT22;55292;51.844;19.246;2022-12-26T16:22:37;9.70;99.90
32728;DHT22;55292;51.844;19.246;2022-12-26T16:27:48;9.70;99.90
32728;DHT22;55292;51.844;19.246;2022-12-26T16:32:52;9.70;99.90
32728;DHT22;55292;51.844;19.246;2022-12-26T16:37:57;9.70;99.90
32728;DHT22;55292;51.844;19.246;2022-12-26T16:43:04;9.70;99.90
32728;DHT22;55292;51.844;19.246;2022-12-26T16:48:08;9.80;99.90
32728;DHT22;55292;51.844;19.246;2022-12-26T16:53:16;9.80;99.90
32728;DHT22;55292;51.844;19.246;2022-12-26T16:58:23;9.70;99.90
32728;DHT22;55292;51.844;19.246;2022-12-26T17:03:33;9.70;99.90
32728;DHT22;55292;51.844;19.246;2022-12-26T17:08:40;9.70;99.90
32728;DHT22;55292;51.844;19.246;2022-12-26T17:13:50;9.60;99.90
32728;DHT22;55292;51.844;19.246;2022-12-26T17:19:16;9.60;99.90
32728;DHT22;55292;51.844;19.246;2022-12-26T17:24:23;9.50;99.90
32728;DHT22;55292;51.844;19.246;2022-12-26T17:29:47;9.40;99.90
32728;DHT22;55292;51.844;19.246;2022-12-26T17:34:50;9.40;99.90
32728;DHT22;55292;51.844;19.246;2022-12-26T17:40:03;9.40;99.90
32728;DHT22;55292;51.844;19.246;2022-12-26T17:45:11;9.40;99.90
32728;DHT22;55292;51.844;19.246;2022-12-26T17:50:17;9.40;99.90
32728;DHT22;55292;51.844;19.246;2022-12-26T17:55:25;9.40;99.90
32728;DHT22;55292;51.844;19.246;2022-12-26T18:00:28;9.50;99.90
32728;DHT22;55292;51.844;19.246;2022-12-26T18:05:32;9.50;99.90
32728;DHT22;55292;51.844;19.246;2022-12-26T18:10:35;9.60;99.90
32728;DHT22;55292;51.844;19.246;2022-12-26T18:15:38;9.50;99.90
32728;DHT22;55292;51.844;19.246;2022-12-26T18:20:41;9.50;99.90
32728;DHT22;55292;51.844;19.246;2022-12-26T18:25:44;9.50;99.90
32728;DHT22;55292;51.844;19.246;2022-12-26T18:30:54;9.40;99.90
32728;DHT22;55292;51.844;19.246;2022-12-26T18:35:59;9.30;99.90
32728;DHT22;55292;51.844;19.246;2022-12-26T18:41:13;9.30;99.90
32728;DHT22;55292;51.844;19.246;2022-12-26T18:46:18;9.20;99.90
32728;DHT22;55292;51.844;19.246;2022-12-26T18:51:23;9.10;99.90
32728;DHT22;55292;51.844;19.246;2022-12-26T18:56:26;9.00;99.90
32728;DHT22;55292;51.844;19.246;2022-12-26T19:01:28;9.00;99.90
32728;DHT22;55292;51.844;19.246;2022-12-26T19:06:32;8.90;99.90
32728;DHT22;55292;51.844;19.246;2022-12-26T19:11:36;8.90;99.90
32728;DHT22;55292;51.844;19.246;2022-12-26T19:16:39;8.90;99.90
32728;DHT22;55292;51.844;19.246;2022-12-26T19:21:41;9.00;99.90
32728;DHT22;55292;51.844;19.246;2022-12-26T19:26:44;9.00;99.90
32728;DHT22;55292;51.844;19.246;2022-12-26T19:31:47;9.00;99.90
32728;DHT22;55292;51.844;19.246;2022-12-26T19:36:50;9.00;99.90
32728;DHT22;55292;51.844;19.246;2022-12-26T19:41:53;8.90;99.90
32728;DHT22;55292;51.844;19.246;2022-12-26T19:46:55;8.90;99.90
32728;DHT22;55292;51.844;19.246;2022-12-26T19:52:14;8.80;99.90
32728;DHT22;55292;51.844;19.246;2022-12-26T19:57:16;8.60;99.90
32728;DHT22;55292;51.844;19.246;2022-12-26T20:02:19;8.70;99.90
32728;DHT22;55292;51.844;19.246;2022-12-26T20:07:22;8.90;99.90
32728;DHT22;55292;51.844;19.246;2022-12-26T20:12:26;9.00;99.90
32728;DHT22;55292;51.844;19.246;2022-12-26T20:17:29;8.90;99.90
32728;DHT22;55292;51.844;19.246;2022-12-26T20:22:32;9.00;99.90
32728;DHT22;55292;51.844;19.246;2022-12-26T20:27:35;9.10;99.90
32728;DHT22;55292;51.844;19.246;2022-12-26T20:32:38;9.10;99.90
32728;DHT22;55292;51.844;19.246;2022-12-26T20:37:47;9.10;99.90
32728;DHT22;55292;51.844;19.246;2022-12-26T20:42:50;9.10;99.90
32728;DHT22;55292;51.844;19.246;2022-12-26T20:47:53;9.10;99.90
32728;DHT22;55292;51.844;19.246;2022-12-26T20:52:56;9.10;99.90
32728;DHT22;55292;51.844;19.246;2022-12-26T20:57:58;9.10;99.90
32728;DHT22;55292;51.844;19.246;2022-12-26T21:03:01;9.10;99.90
32728;DHT22;55292;51.844;19.246;2022-12-26T21:08:05;9.10;99.90
32728;DHT22;55292;51.844;19.246;2022-12-26T21:13:08;9.20;99.90
32728;DHT22;55292;51.844;19.246;2022-12-26T21:18:11;9.10;99.90
32728;DHT22;55292;51.844;19.246;2022-12-26T21:23:13;9.00;99.90
32728;DHT22;55292;51.844;19.246;2022-12-26T21:28:16;9.00;99.90
32728;DHT22;55292;51.844;19.246;2022-12-26T21:33:19;8.90;99.90
32728;DHT22;55292;51.844;19.246;2022-12-26T21:38:23;8.70;99.90
32728;DHT22;55292;51.844;19.246;2022-12-26T21:43:29;8.60;99.90
32728;DHT22;55292;51.844;19.246;2022-12-26T21:48:31;8.40;99.90
32728;DHT22;55292;51.844;19.246;2022-12-26T21:53:34;8.40;99.90
32728;DHT22;55292;51.844;19.246;2022-12-26T21:58:38;8.40;99.90
32728;DHT22;55292;51.844;19.246;2022-12-26T22:03:59;8.30;99.90
32728;DHT22;55292;51.844;19.246;2022-12-26T22:09:20;8.30;99.90
32728;DHT22;55292;51.844;19.246;2022-12-26T22:14:23;8.20;99.90
32728;DHT22;55292;51.844;19.246;2022-12-26T22:19:26;8.20;99.90
32728;DHT22;55292;51.844;19.246;2022-12-26T22:24:30;8.30;99.90
32728;DHT22;55292;51.844;19.246;2022-12-26T22:29:33;8.20;99.90
32728;DHT22;55292;51.844;19.246;2022-12-26T22:34:35;8.20;99.90
32728;DHT22;55292;51.844;19.246;2022-12-26T22:39:38;8.20;99.90
32728;DHT22;55292;51.844;19.246;2022-12-26T22:44:40;8.20;99.90
32728;DHT22;55292;51.844;19.246;2022-12-26T22:49:43;8.10;99.90
32728;DHT22;55292;51.844;19.246;2022-12-26T22:54:45;8.10;99.90
32728;DHT22;55292;51.844;19.246;2022-12-26T22:59:48;8.20;99.90
32728;DHT22;55292;51.844;19.246;2022-12-26T23:05:11;8.20;99.90
32728;DHT22;55292;51.844;19.246;2022-12-26T23:10:19;8.00;99.90
32728;DHT22;55292;51.844;19.246;2022-12-26T23:15:24;8.00;99.90
32728;DHT22;55292;51.844;19.246;2022-12-26T23:20:30;11.10;99.90
32728;DHT22;55292;51.844;19.246;2022-12-26T23:25:52;7.80;99.90
32728;DHT22;55292;51.844;19.246;2022-12-26T23:30:55;7.60;99.90
32728;DHT22;55292;51.844;19.246;2022-12-26T23:35:58;7.50;99.90
32728;DHT22;55292;51.844;19.246;2022-12-26T23:41:01;7.50;99.90
32728;DHT22;55292;51.844;19.246;2022-12-26T23:46:08;7.60;99.90
32728;DHT22;55292;51.844;19.246;2022-12-26T23:51:11;7.70;99.90
32728;DHT22;55292;51.844;19.246;2022-12-26T23:56:13;7.70;99.90
